Flight Track Log - Related Links

Times and Time Zones

All times are in EDT time to prevent confusion due to time zone crossing. See the AAL2007 flight status page for this flight to view local times or setup timezone preferences in your user account.

Time Position Orientation Groundspeed Altitude Reporting Facility
EDT Latitude Longitude Course Direction KTS MPH feet Rate Location/Type
Wed 06:44:58 PM 41.9333 -87.9167 207° Southwest 177 204 2,200  Level Chicago TRACON
Wed 06:45:52 PM 41.9000 -87.9667 228° Southwest 223 257 4,200 1,673 Climbing Chicago TRACON
Wed 06:47:25 PM 41.8214 -88.0150 205° Southwest 239 275 6,300 2,361 Climbing Chicago Center
Wed 06:48:00 PM 41.6132 -88.2748 197° South  Level Estimated
Wed 06:48:27 PM 41.7397 -88.0486 197° South 258 297 10,300  Level Chicago Center
Wed 06:49:00 PM 41.5209 -88.3661 194° South  Level Estimated
Wed 06:49:29 PM 41.6681 -88.0775 197° South 271 312 12,800  Level Chicago Center
Wed 06:50:00 PM 41.4339 -88.4520 207° Southwest  Level Estimated
Wed 06:50:31 PM 41.5911 -88.1078 196° South 287 330 15,500  Level Chicago Center
Wed 06:51:33 PM 41.5100 -88.1397 196° South 306 352 17,700 1,968 Climbing Chicago Center
Wed 06:52:36 PM 41.4081 -88.1794 196° South 329 379 19,600 1,152 Climbing Chicago Center
Wed 06:53:38 PM 41.3089 -88.2236 198° South 381 438 20,100 1,210 Climbing Chicago Center
Wed 06:54:40 PM 41.1994 -88.2733 199° South 414 476 22,100 1,935 Climbing Chicago Center
Wed 06:55:42 PM 41.0867 -88.3244 199° South 425 489 24,100 1,984 Climbing Chicago Center
Wed 06:56:44 PM 40.9472 -88.3869 199° South 441 507 26,200 1,742 Climbing Chicago Center
Wed 06:57:46 PM 40.8267 -88.4408 199° South 458 527 27,700 1,694 Climbing Chicago Center
Wed 06:58:48 PM 40.7247 -88.5406 217° Southwest 465 535 29,700 1,839 Climbing Chicago Center
Wed 06:59:50 PM 40.6278 -88.6419 218° Southwest 451 519 31,500 1,065 Climbing Chicago Center
Wed 07:00:52 PM 40.5331 -88.7447 220° Southwest 446 513 31,900 242 Climbing Chicago Center
Wed 07:01:54 PM 40.4236 -88.8594 219° Southwest 441 507 32,000 435 Climbing Chicago Center
Wed 07:02:56 PM 40.3275 -88.9622 219° Southwest 443 510 32,800 919 Climbing Chicago Center
Wed 07:03:58 PM 40.2336 -89.0619 219° Southwest 435 501 33,900 576 Climbing Chicago Center
Wed 07:05:01 PM 40.1425 -89.1569 219° Southwest 422 486 34,000 55 Climbing Chicago Center
Wed 07:05:48 PM 40.0689 -89.2344 219° Southwest 420 483 34,000  Level Kansas City Center
Wed 07:06:50 PM 39.9781 -89.3300 219° Southwest 418 481 34,000 484 Level Kansas City Center
Wed 07:07:52 PM 39.8881 -89.4250 219° Southwest 417 480 35,000 919 Climbing Kansas City Center
Wed 07:08:54 PM 39.7808 -89.5361 219° Southwest 412 474 35,900 484 Climbing Kansas City Center
Wed 07:09:56 PM 39.6925 -89.6297 219° Southwest 410 472 36,000 48 Climbing Kansas City Center
Wed 07:10:58 PM 39.6056 -89.7219 219° Southwest 408 470 36,000 -48 Level Kansas City Center
Wed 07:12:00 PM 39.5178 -89.8122 218° Southwest 406 467 35,900 -48 Descending Kansas City Center
Wed 07:13:02 PM 39.4306 -89.9000 218° Southwest 401 461 35,900  Level Kansas City Center
Wed 07:14:04 PM 39.3447 -89.9892 219° Southwest 398 458 35,900  Level Kansas City Center
Wed 07:15:06 PM 39.2394 -90.0969 218° Southwest 401 461 35,900 48 Level Kansas City Center
Wed 07:16:08 PM 39.1511 -90.1875 218° Southwest 404 465 36,000 97 Climbing Kansas City Center
Wed 07:17:10 PM 39.0633 -90.2778 219° Southwest 405 466 36,100  Climbing Kansas City Center
Wed 07:18:12 PM 38.9750 -90.3683 219° Southwest 408 470 36,000 -48 Descending Kansas City Center
Wed 07:19:14 PM 38.8761 -90.4714 219° Southwest 405 466 36,000 48 Level Kansas City Center
Wed 07:20:17 PM 38.7867 -90.5686 220° Southwest 414 476 36,100  Climbing Kansas City Center
Wed 07:21:19 PM 38.7033 -90.6639 222° Southwest 401 461 36,000 -48 Descending Kansas City Center
Wed 07:22:21 PM 38.6192 -90.7636 223° Southwest 411 473 36,000 -48 Level Kansas City Center
Wed 07:23:23 PM 38.5369 -90.8569 222° Southwest 408 470 35,900 -48 Descending Kansas City Center
Wed 07:24:25 PM 38.4389 -90.9692 222° Southwest 401 461 35,900  Level Kansas City Center
Wed 07:25:27 PM 38.3561 -91.0611 221° Southwest 397 457 35,900  Level Kansas City Center
Wed 07:26:29 PM 38.2736 -91.1569 222° Southwest 403 464 35,900 97 Level Kansas City Center
Wed 07:27:31 PM 38.1883 -91.2519 221° Southwest 407 468 36,100 97 Climbing Kansas City Center
Wed 07:28:33 PM 38.1003 -91.3522 222° Southwest 408 470 36,100 -48 Level Kansas City Center
Wed 07:29:35 PM 38.0161 -91.4483 222° Southwest 407 468 36,000 -49 Descending Kansas City Center
Wed 07:30:36 PM 37.9311 -91.5436 221° Southwest 405 466 36,000  Level Kansas City Center
Wed 07:31:38 PM 37.8286 -91.6581 221° Southwest 407 468 36,000  Level Kansas City Center
Wed 07:32:40 PM 37.7439 -91.7519 221° Southwest 403 464 36,000 -48 Level Kansas City Center
Wed 07:33:42 PM 37.6592 -91.8475 222° Southwest 404 465 35,900  Descending Kansas City Center
Wed 07:34:44 PM 37.5736 -91.9422 221° Southwest 405 466 36,000  Climbing Kansas City Center
Wed 07:35:46 PM 37.4872 -92.0358 221° Southwest 405 466 35,900  Descending Kansas City Center
Wed 07:36:48 PM 37.3936 -92.1189 215° Southwest 408 470 36,000 48 Climbing Kansas City Center
Wed 07:37:50 PM 37.3011 -92.2042 216° Southwest 408 470 36,000 -48 Level Kansas City Center
Wed 07:38:52 PM 37.2086 -92.2911 217° Southwest 411 473 35,900  Descending Kansas City Center
Wed 07:39:53 PM 37.1153 -92.3761 216° Southwest 412 474 36,000 49 Climbing Kansas City Center
Wed 07:40:55 PM 37.0031 -92.4783 216° Southwest 413 475 36,000  Level Kansas City Center
Wed 07:41:57 PM 36.9097 -92.5639 216° Southwest 413 475 36,000  Level Kansas City Center
Wed 07:42:45 PM 36.8342 -92.6356 217° Southwest 416 479 36,000  Level Memphis Center
Wed 07:43:45 PM 36.7408 -92.7208 216° Southwest 416 479 36,000  Level Memphis Center
Wed 07:44:45 PM 36.6497 -92.8036 216° Southwest 416 479 36,000  Level Memphis Center
Wed 07:45:45 PM 36.5542 -92.8858 215° Southwest 416 479 36,000  Level Memphis Center
Wed 07:46:45 PM 36.4797 -92.9583 218° Southwest 416 479 36,000  Level Memphis Center
Wed 07:47:45 PM 36.3736 -93.0478 214° Southwest 421 484 36,000 50 Level Memphis Center
Wed 07:48:45 PM 36.2781 -93.1322 215° Southwest 421 484 36,100  Climbing Memphis Center
Wed 07:49:45 PM 36.1864 -93.2164 217° Southwest 421 484 36,000 -50 Descending Memphis Center
Wed 07:50:45 PM 36.0928 -93.3006 216° Southwest 416 479 36,000 -50 Level Memphis Center
Wed 07:51:45 PM 35.9861 -93.3942 215° Southwest 421 484 35,900 -50 Descending Memphis Center
Wed 07:52:45 PM 35.8925 -93.4753 215° Southwest 421 484 35,900 50 Level Memphis Center
Wed 07:53:45 PM 35.7986 -93.5589 216° Southwest 416 479 36,000  Climbing Memphis Center
Wed 07:54:45 PM 35.7044 -93.6447 217° Southwest 421 484 35,900  Descending Memphis Center
Wed 07:55:45 PM 35.6064 -93.7275 214° Southwest 421 484 36,000 50 Climbing Memphis Center
Wed 07:56:45 PM 35.5103 -93.8106 215° Southwest 421 484 36,000 50 Level Memphis Center
Wed 07:57:45 PM 35.4119 -93.8956 215° Southwest 427 491 36,100  Climbing Memphis Center
Wed 07:58:45 PM 35.3136 -93.9778 214° Southwest 432 497 36,000 -36 Descending Memphis Center
Wed 08:00:30 PM 35.1525 -94.1203 216° Southwest 439 505 36,000  Level Fort Worth Center
Wed 08:01:30 PM 35.0525 -94.2053 215° Southwest 439 505 36,000  Level Fort Worth Center
Wed 08:02:30 PM 34.9464 -94.3031 217° Southwest 446 513 36,000  Level Fort Worth Center
Wed 08:03:30 PM 34.8483 -94.3850 214° Southwest 446 513 36,000  Level Fort Worth Center
Wed 08:04:30 PM 34.7503 -94.4694 215° Southwest 441 507 36,000  Level Fort Worth Center
Wed 08:05:30 PM 34.6478 -94.5561 215° Southwest 447 514 36,000  Level Fort Worth Center
Wed 08:06:30 PM 34.5475 -94.6428 215° Southwest 447 514 36,000  Level Fort Worth Center
Wed 08:07:30 PM 34.4450 -94.7267 214° Southwest 447 514 36,000 -50 Level Fort Worth Center
Wed 08:08:30 PM 34.3425 -94.8128 215° Southwest 447 514 35,900 -50 Descending Fort Worth Center
Wed 08:09:30 PM 34.2400 -94.8989 215° Southwest 452 520 35,900 50 Level Fort Worth Center
Wed 08:10:30 PM 34.1375 -94.9869 215° Southwest 457 526 36,000 100 Climbing Fort Worth Center
Wed 08:11:30 PM 34.0325 -95.0728 214° Southwest 462 532 36,100 50 Climbing Fort Worth Center
Wed 08:12:30 PM 33.9278 -95.1606 215° Southwest 462 532 36,100  Level Fort Worth Center
Wed 08:13:30 PM 33.8208 -95.2483 214° Southwest 462 532 36,100 -50 Level Fort Worth Center
Wed 08:14:30 PM 33.7158 -95.3333 214° Southwest 462 532 36,000 -100 Descending Fort Worth Center
Wed 08:15:30 PM 33.6150 -95.4181 215° Southwest 462 532 35,900 -800 Descending Fort Worth Center
Wed 08:16:30 PM 33.5097 -95.5028 214° Southwest 462 532 34,400 -1,650 Descending Fort Worth Center
Wed 08:17:30 PM 33.4047 -95.5869 214° Southwest 462 532 32,600 -1,200 Descending Fort Worth Center
Wed 08:18:30 PM 33.3181 -95.6608 215° Southwest 439 505 32,000 -300 Descending Fort Worth Center
Wed 08:19:30 PM 33.2067 -95.7525 215° Southwest 444 511 32,000  Level Fort Worth Center
Wed 08:20:30 PM 33.1114 -95.8286 214° Southwest 444 511 32,000  Level Fort Worth Center
Wed 08:21:30 PM 32.9978 -95.9197 214° Southwest 455 524 32,000  Level Fort Worth Center
Wed 08:22:30 PM 32.9028 -95.9981 215° Southwest 467 537 32,000  Level Fort Worth Center
Wed 08:23:30 PM 32.7847 -96.0914 214° Southwest 467 537 32,000  Level Fort Worth Center
Wed 08:25:30 PM 32.5672 -96.2647 214° Southwest 467 537 32,000  Level Fort Worth Center
Wed 08:26:30 PM 32.4614 -96.3522 215° Southwest 467 537 32,000  Level Fort Worth Center
Wed 08:27:30 PM 32.3536 -96.4394 214° Southwest 472 543 32,000  Level Fort Worth Center
Wed 08:28:30 PM 32.2436 -96.5267 214° Southwest 472 543 32,000 -100 Level Fort Worth Center
Wed 08:29:30 PM 32.1461 -96.5989 212° Southwest 477 549 31,800 -800 Descending Fort Worth Center
Wed 08:30:30 PM 32.0358 -96.6903 215° Southwest 477 549 30,400 -1,500 Descending Fort Worth Center
Wed 08:31:30 PM 31.9133 -96.7869 214° Southwest 483 556 28,800 -1,550 Descending Fort Worth Center
Wed 08:32:30 PM 31.8008 -96.8731 213° Southwest 489 563 27,300 -1,450 Descending Fort Worth Center
Wed 08:33:30 PM 31.6928 -96.9592 214° Southwest 489 563 25,900 -1,388 Descending Fort Worth Center
Wed 08:34:31 PM 31.5864 -97.0378 212° Southwest 475 547 24,500 -1,424 Descending Fort Worth Center
Wed 08:35:28 PM 31.4811 -97.1028 208° Southwest 440 506 23,100 -1,261 Descending Houston Center
Wed 08:36:30 PM 31.3644 -97.1489 199° South 438 504 22,000 -532 Descending Houston Center
Wed 08:37:32 PM 31.2500 -97.1928 198° South 430 495 22,000 -976 Level Houston Center
Wed 08:38:33 PM 31.1344 -97.2386 199° South 434 499 20,000 -2,244 Descending Houston Center
Wed 08:39:35 PM 31.0186 -97.2844 199° South 437 503 17,400 -2,468 Descending Houston Center
Wed 08:40:37 PM 30.9111 -97.3261 198° South 428 493 14,900 -2,390 Descending Houston Center
Wed 08:41:38 PM 30.7886 -97.3739 199° South 402 463 12,500 -1,805 Descending Houston Center
Wed 08:42:40 PM 30.7128 -97.4406 217° Southwest 344 396 11,200 -1,500 Descending Houston Center
Wed 08:43:42 PM 30.6464 -97.5047 220° Southwest 316 364 9,400 -1,597 Descending Houston Center
Wed 08:44:44 PM 30.5842 -97.5686 221° Southwest 300 345 7,900 -1,366 Descending Houston Center
Wed 08:45:45 PM 30.5264 -97.6317 223° Southwest 288 331 6,600 -1,024 Descending Houston Center
Wed 08:46:47 PM 30.4678 -97.6736 212° Southwest 249 287 5,800 -871 Descending Houston Center
Wed 08:47:49 PM 30.4042 -97.6858 189° South 233 268 4,800 -968 Descending Houston Center

Login

Don't have an account? Register now (free) for customized features, flight alerts, and more!